createdAt,value
2019-01-24T00:00:44.910Z,19.3
2019-01-24T00:01:34.697Z,19.2
2019-01-24T00:02:25.352Z,19.1
2019-01-24T00:03:14.814Z,18.9
2019-01-24T00:04:04.399Z,18.8
2019-01-24T00:05:45.005Z,19.1
2019-01-24T00:06:35.306Z,19.6
2019-01-24T00:07:25.114Z,19.9
2019-01-24T00:08:15.426Z,20.3
2019-01-24T00:09:04.981Z,20.6
2019-01-24T00:09:55.571Z,20.8
2019-01-24T00:10:45.326Z,20.9
2019-01-24T00:12:26.003Z,21.3
2019-01-24T00:13:15.831Z,21.4
2019-01-24T00:14:05.844Z,21.5
2019-01-24T00:14:55.621Z,21.6
2019-01-24T00:15:45.970Z,21.7
2019-01-24T00:16:35.493Z,21.8
2019-01-24T00:17:26.068Z,21.8
2019-01-24T00:18:16.587Z,21.3
2019-01-24T00:19:05.898Z,20.6
2019-01-24T00:19:56.546Z,19.9
2019-01-24T00:20:45.526Z,19.3
2019-01-24T00:21:35.536Z,18.8
2019-01-24T00:22:26.453Z,18.3
2019-01-24T00:23:16.543Z,18
2019-01-24T00:24:06.499Z,17.9
2019-01-24T00:24:55.755Z,18.3
2019-01-24T00:25:47.823Z,18.9
2019-01-24T00:26:35.298Z,19.4
2019-01-24T00:27:26.520Z,19.9
2019-01-24T00:28:17.125Z,20.3
2019-01-24T00:29:06.873Z,20.5
2019-01-24T00:29:56.651Z,20.8
2019-01-24T00:30:46.450Z,21
2019-01-24T00:31:37.318Z,21.2
2019-01-24T00:32:27.145Z,21.4
2019-01-24T00:33:17.164Z,21.5
2019-01-24T00:34:07.306Z,21.6
2019-01-24T00:34:56.157Z,21.8
2019-01-24T00:35:47.352Z,21.9
2019-01-24T00:36:37.194Z,22
2019-01-24T00:37:27.202Z,22.1
2019-01-24T00:38:16.980Z,21.9
2019-01-24T00:39:07.606Z,21.4
2019-01-24T00:39:57.925Z,20.9
2019-01-24T00:40:47.385Z,20.6
2019-01-24T00:41:37.697Z,20.3
2019-01-24T00:42:27.852Z,20.1
2019-01-24T00:43:18.682Z,19.9
2019-01-24T00:44:07.649Z,19.6
2019-01-24T00:44:58.241Z,19.6
2019-01-24T00:45:47.539Z,19.4
2019-01-24T00:46:37.319Z,19.3
2019-01-24T00:47:27.351Z,19.3
2019-01-24T00:48:17.979Z,19.2
2019-01-24T00:49:07.203Z,19.1
2019-01-24T00:49:58.371Z,18.9
2019-01-24T00:50:47.888Z,18.8
2019-01-24T00:51:38.244Z,18.8
2019-01-24T00:52:27.423Z,19.4
2019-01-24T00:53:18.364Z,19.8
2019-01-24T00:54:07.585Z,20.2
2019-01-24T00:54:58.424Z,20.4
2019-01-24T00:55:48.017Z,20.8
2019-01-24T00:56:37.730Z,20.9
2019-01-24T00:58:17.854Z,21.3
2019-01-24T00:59:08.215Z,21.5
2019-01-24T00:59:58.534Z,21.6
2019-01-24T01:00:48.595Z,21.8
2019-01-24T01:01:40.178Z,21.9
2019-01-24T01:02:28.681Z,22
2019-01-24T01:03:18.455Z,22.1
2019-01-24T01:04:08.790Z,22.1
2019-01-24T01:04:58.835Z,21.6
2019-01-24T01:05:48.903Z,21.1
2019-01-24T01:06:39.233Z,20.7
2019-01-24T01:07:28.750Z,20.4
2019-01-24T01:08:19.883Z,20.1
2019-01-24T01:09:09.902Z,19.9
2019-01-24T01:09:59.253Z,19.8
2019-01-24T01:10:49.732Z,19.6
2019-01-24T01:11:39.588Z,19.4
2019-01-24T01:12:29.867Z,19.3
2019-01-24T01:13:19.647Z,19.3
2019-01-24T01:14:09.967Z,19.2
2019-01-24T01:14:59.642Z,19.1
2019-01-24T01:15:49.079Z,18.9
2019-01-24T01:16:39.697Z,18.8
2019-01-24T01:18:20.290Z,18.8
2019-01-24T01:19:10.362Z,19.3
2019-01-24T01:20:00.814Z,19.8
2019-01-24T01:20:50.417Z,20.1
2019-01-24T01:21:40.489Z,20.4
2019-01-24T01:22:29.971Z,20.7
2019-01-24T01:23:19.780Z,20.9
2019-01-24T01:25:00.477Z,21.3
2019-01-24T01:25:51.054Z,21.4
2019-01-24T01:26:40.319Z,21.6
2019-01-24T01:27:30.929Z,21.8
2019-01-24T01:28:19.626Z,21.9
2019-01-24T01:29:10.989Z,22
2019-01-24T01:30:01.269Z,22.1
2019-01-24T01:30:50.826Z,22.1
2019-01-24T01:31:40.869Z,21.7
2019-01-24T01:32:30.986Z,21.2
2019-01-24T01:33:21.572Z,20.8
2019-01-24T01:34:10.499Z,20.4
2019-01-24T01:35:01.406Z,20.2
2019-01-24T01:35:51.178Z,19.9
2019-01-24T01:36:41.529Z,19.8
2019-01-24T01:37:31.561Z,19.6
2019-01-24T01:38:23.003Z,19.5
2019-01-24T01:39:11.660Z,19.4
2019-01-24T01:40:01.205Z,19.3
2019-01-24T01:40:51.830Z,19.2
2019-01-24T01:41:41.353Z,19.2
2019-01-24T01:42:31.652Z,19
2019-01-24T01:43:21.690Z,18.9
2019-01-24T01:44:11.738Z,18.8
2019-01-24T01:45:01.633Z,18.9
2019-01-24T01:45:51.893Z,19.4
2019-01-24T01:46:41.945Z,19.9
2019-01-24T01:47:31.428Z,20.2
2019-01-24T01:48:22.043Z,20.5
2019-01-24T01:49:11.830Z,20.8
2019-01-24T01:50:02.775Z,20.9
2019-01-24T01:51:41.997Z,21.3
2019-01-24T01:52:32.875Z,21.4
2019-01-24T01:53:22.662Z,21.6
2019-01-24T01:54:11.900Z,21.8
2019-01-24T01:55:02.402Z,21.9
2019-01-24T01:55:52.906Z,21.9
2019-01-24T01:56:42.929Z,22.1
2019-01-24T01:57:32.930Z,22.1
2019-01-24T01:58:23.277Z,21.6
2019-01-24T02:00:02.922Z,20.8
2019-01-24T02:00:53.167Z,20.4
2019-01-24T02:01:43.264Z,20.2
2019-01-24T02:02:33.574Z,19.9
2019-01-24T02:03:23.066Z,19.8
2019-01-24T02:04:13.409Z,19.6
2019-01-24T02:05:03.283Z,19.5
2019-01-24T02:05:53.528Z,19.4
2019-01-24T02:06:43.394Z,19.3
2019-01-24T02:07:33.683Z,19.2
2019-01-24T02:08:23.413Z,19.1
2019-01-24T02:09:13.479Z,18.9
2019-01-24T02:10:03.619Z,18.8
2019-01-24T02:11:43.982Z,18.9
2019-01-24T02:12:34.251Z,19.4
2019-01-24T02:13:24.324Z,19.8
2019-01-24T02:14:13.576Z,20.2
2019-01-24T02:15:04.561Z,20.5
2019-01-24T02:15:54.237Z,20.7
2019-01-24T02:16:44.023Z,20.9
2019-01-24T02:18:24.371Z,21.3
2019-01-24T02:19:14.513Z,21.4
2019-01-24T02:20:04.133Z,21.6
2019-01-24T02:20:54.005Z,21.7
2019-01-24T02:21:44.611Z,21.8
2019-01-24T02:22:34.675Z,21.9
2019-01-24T02:23:24.460Z,22.1
2019-01-24T02:24:14.548Z,22.1
2019-01-24T02:25:05.162Z,21.8
2019-01-24T02:25:54.885Z,21.3
2019-01-24T02:26:44.497Z,20.9
2019-01-24T02:27:35.328Z,20.5
2019-01-24T02:28:25.359Z,20.3
2019-01-24T02:29:14.840Z,20
2019-01-24T02:30:05.533Z,19.8
2019-01-24T02:30:55.542Z,19.6
2019-01-24T02:31:44.765Z,19.6
2019-01-24T02:32:35.434Z,19.4
2019-01-24T02:33:24.759Z,19.3
2019-01-24T02:34:15.247Z,19.3
2019-01-24T02:35:05.900Z,19.1
2019-01-24T02:35:55.389Z,19
2019-01-24T02:36:45.679Z,18.8
2019-01-24T02:38:25.562Z,18.8
2019-01-24T02:39:16.168Z,19.4
2019-01-24T02:40:06.194Z,19.8
2019-01-24T02:40:55.161Z,20.1
2019-01-24T02:41:46.315Z,20.4
2019-01-24T02:42:35.242Z,20.7
2019-01-24T02:43:25.089Z,20.9
2019-01-24T02:44:15.364Z,21.1
2019-01-24T02:45:06.444Z,21.3
2019-01-24T02:45:56.642Z,21.4
2019-01-24T02:46:45.596Z,21.5
2019-01-24T02:47:36.414Z,21.6
2019-01-24T02:48:26.801Z,21.8
2019-01-24T02:49:16.169Z,21.9
2019-01-24T02:50:06.813Z,21.9
2019-01-24T02:50:56.402Z,22.1
2019-01-24T02:51:46.431Z,22.1
2019-01-24T02:52:35.926Z,21.5
2019-01-24T02:53:26.531Z,21.1
2019-01-24T02:54:16.151Z,20.7
2019-01-24T02:55:07.073Z,20.4
2019-01-24T02:55:56.961Z,20.1
2019-01-24T02:56:46.766Z,19.9
2019-01-24T02:57:37.449Z,19.8
2019-01-24T02:58:27.448Z,19.6
2019-01-24T02:59:17.483Z,19.4
2019-01-24T03:00:07.368Z,19.4
2019-01-24T03:00:56.783Z,19.3
2019-01-24T03:01:47.107Z,19.2
2019-01-24T03:02:37.185Z,19.1
2019-01-24T03:03:27.553Z,18.9
2019-01-24T03:04:17.297Z,18.8
2019-01-24T03:05:07.412Z,18.6
2019-01-24T03:08:40.167Z,20.1
2019-01-24T03:09:30.165Z,20.5
2019-01-24T03:10:20.507Z,20.7
2019-01-24T03:11:10.333Z,20.9
2019-01-24T03:12:50.931Z,21.3
2019-01-24T03:13:40.394Z,21.4
2019-01-24T03:14:30.817Z,21.6
2019-01-24T03:15:20.298Z,21.6
2019-01-24T03:16:10.610Z,21.8
2019-01-24T03:17:00.942Z,21.9
2019-01-24T03:17:51.282Z,22
2019-01-24T03:18:40.846Z,22
2019-01-24T03:19:31.194Z,21.8
2019-01-24T03:20:20.930Z,21.3
2019-01-24T03:21:11.512Z,20.8
2019-01-24T03:22:01.595Z,20.5
2019-01-24T03:22:51.349Z,20.2
2019-01-24T03:23:41.099Z,20
2019-01-24T03:24:31.731Z,19.8
2019-01-24T03:25:21.077Z,19.6
2019-01-24T03:26:11.571Z,19.5
2019-01-24T03:27:01.646Z,19.4
2019-01-24T03:27:51.708Z,19.3
2019-01-24T03:28:41.461Z,19.2
2019-01-24T03:29:31.209Z,19.1
2019-01-24T03:30:22.120Z,19.1
2019-01-24T03:31:11.768Z,18.9
2019-01-24T03:32:02.592Z,18.8
2019-01-24T03:32:52.125Z,18.8
2019-01-24T03:33:41.588Z,19.4
2019-01-24T03:34:32.447Z,19.8
2019-01-24T03:35:22.248Z,20.1
2019-01-24T03:36:12.525Z,20.4
2019-01-24T03:37:02.286Z,20.7
2019-01-24T03:37:51.311Z,20.9
2019-01-24T03:38:41.845Z,21.1
2019-01-24T03:39:32.484Z,21.3
2019-01-24T03:40:21.782Z,21.4
2019-01-24T03:41:12.368Z,21.5
2019-01-24T03:42:02.913Z,21.6
2019-01-24T03:42:52.482Z,21.8
2019-01-24T03:43:43.028Z,21.9
2019-01-24T03:44:32.578Z,21.9
2019-01-24T03:45:22.665Z,22.1
2019-01-24T03:46:13.203Z,22.1
2019-01-24T03:47:02.758Z,21.6
2019-01-24T03:47:53.087Z,21.1
2019-01-24T03:48:42.794Z,20.7
2019-01-24T03:49:32.377Z,20.4
2019-01-24T03:50:23.534Z,20.1
2019-01-24T03:51:13.368Z,19.9
2019-01-24T03:52:03.600Z,19.8
2019-01-24T03:52:53.435Z,19.6
2019-01-24T03:53:43.475Z,19.4
2019-01-24T03:54:33.848Z,19.4
2019-01-24T03:55:23.052Z,19.3
2019-01-24T03:56:13.587Z,19.2
2019-01-24T03:57:02.844Z,19.1
2019-01-24T03:57:53.550Z,19
2019-01-24T03:58:43.522Z,18.9
2019-01-24T03:59:33.622Z,18.8
2019-01-24T04:00:23.721Z,18.8
2019-01-24T04:02:04.049Z,18.6
2019-01-24T04:02:53.541Z,18.8
2019-01-24T04:03:43.841Z,19.2
2019-01-24T04:04:33.384Z,19.7
2019-01-24T04:05:24.601Z,20
2019-01-24T04:06:14.012Z,20.3
2019-01-24T04:07:04.161Z,20.6
2019-01-24T04:07:54.231Z,20.8
2019-01-24T04:08:44.211Z,21
2019-01-24T04:10:24.926Z,21.3
2019-01-24T04:11:13.803Z,21.4
2019-01-24T04:12:04.752Z,21.6
2019-01-24T04:12:54.771Z,21.7
2019-01-24T04:13:44.261Z,21.8
2019-01-24T04:15:25.058Z,22
2019-01-24T04:16:15.330Z,22.1
2019-01-24T04:17:05.139Z,22.1
2019-01-24T04:17:54.880Z,21.8
2019-01-24T04:18:44.632Z,21.2
2019-01-24T04:19:34.761Z,20.8
2019-01-24T04:20:24.761Z,20.5
2019-01-24T04:21:15.322Z,20.3
2019-01-24T04:22:04.877Z,20
2019-01-24T04:22:55.505Z,19.8
2019-01-24T04:23:45.537Z,19.6
2019-01-24T04:24:35.546Z,19.5
2019-01-24T04:25:25.982Z,19.4
2019-01-24T04:26:14.850Z,19.3
2019-01-24T04:27:05.203Z,19.2
2019-01-24T04:27:55.688Z,19.1
2019-01-24T04:28:45.597Z,19
2019-01-24T04:29:35.665Z,18.9
2019-01-24T04:30:25.380Z,18.9
2019-01-24T04:31:16.017Z,18.8
2019-01-24T04:32:06.108Z,18.8
2019-01-24T04:34:36.020Z,19.1
2019-01-24T04:35:28.904Z,19.6
2019-01-24T04:36:17.987Z,19.9
2019-01-24T04:37:05.937Z,20.3
2019-01-24T04:37:55.996Z,20.4
2019-01-24T04:38:46.001Z,20.7
2019-01-24T04:39:36.599Z,20.9
2019-01-24T04:40:26.404Z,21.1
2019-01-24T04:41:16.474Z,21.3
2019-01-24T04:42:06.831Z,21.4
2019-01-24T04:42:56.619Z,21.5
2019-01-24T04:43:46.381Z,21.6
2019-01-24T04:44:36.656Z,21.8
2019-01-24T04:45:26.787Z,21.8
2019-01-24T04:46:16.485Z,21.9
2019-01-24T04:47:07.136Z,22
2019-01-24T04:47:56.214Z,22.1
2019-01-24T04:48:46.996Z,22
2019-01-24T04:49:36.299Z,21.5
2019-01-24T04:50:26.749Z,21.1
2019-01-24T04:51:16.682Z,20.6
2019-01-24T04:52:07.032Z,20.4
2019-01-24T04:52:56.811Z,20.1
2019-01-24T04:53:47.190Z,19.9
2019-01-24T04:54:36.888Z,19.8
2019-01-24T04:55:26.528Z,19.6
2019-01-24T04:56:17.113Z,19.4
2019-01-24T04:57:07.328Z,19.4
2019-01-24T04:57:59.160Z,19.3
2019-01-24T04:58:47.480Z,19.2
2019-01-24T04:59:37.366Z,19.1
2019-01-24T05:00:27.634Z,19
2019-01-24T05:01:16.351Z,18.9
2019-01-24T05:02:07.445Z,18.8
2019-01-24T05:02:57.505Z,18.8
2019-01-24T05:03:47.778Z,18.6
2019-01-24T05:04:37.007Z,18.6
2019-01-24T05:05:35.179Z,18.8
2019-01-24T05:06:17.890Z,19.3
2019-01-24T05:07:08.123Z,19.7
2019-01-24T05:07:57.851Z,20.1
2019-01-24T05:08:47.638Z,20.3
2019-01-24T05:09:37.551Z,20.6
2019-01-24T05:10:28.662Z,20.8
2019-01-24T05:11:18.033Z,21
2019-01-24T05:12:58.989Z,21.3
2019-01-24T05:13:48.470Z,21.4
2019-01-24T05:14:39.005Z,21.6
2019-01-24T05:15:28.822Z,21.6
2019-01-24T05:16:19.157Z,21.8
2019-01-24T05:17:08.635Z,21.8
2019-01-24T05:17:59.031Z,21.9
2019-01-24T05:18:49.031Z,22
2019-01-24T05:19:39.098Z,22.1
2019-01-24T05:20:28.916Z,21.9
2019-01-24T05:21:19.466Z,21.4
2019-01-24T05:22:09.524Z,21
2019-01-24T05:22:59.390Z,20.6
2019-01-24T05:23:49.964Z,20.3
2019-01-24T05:24:39.964Z,20.1
2019-01-24T05:25:30.066Z,19.9
2019-01-24T05:26:19.595Z,19.7
2019-01-24T05:27:09.335Z,19.6
2019-01-24T05:28:00.092Z,19.4
2019-01-24T05:28:49.462Z,19.3
2019-01-24T05:29:39.223Z,19.3
2019-01-24T05:30:29.899Z,19.1
2019-01-24T05:31:19.919Z,19.1
2019-01-24T05:32:09.672Z,18.9
2019-01-24T05:33:01.628Z,18.9
2019-01-24T05:33:50.132Z,18.8
2019-01-24T05:34:40.697Z,18.8
2019-01-24T05:35:37.602Z,18.6
2019-01-24T05:37:10.301Z,19
2019-01-24T05:38:00.946Z,19.4
2019-01-24T05:38:50.974Z,19.8
2019-01-24T05:39:41.016Z,20.2
2019-01-24T05:40:30.816Z,20.4
2019-01-24T05:41:21.147Z,20.6
2019-01-24T05:42:10.659Z,20.8
2019-01-24T05:43:00.793Z,21
2019-01-24T05:44:41.418Z,21.3
2019-01-24T05:45:31.144Z,21.4
2019-01-24T05:46:20.921Z,21.5
2019-01-24T05:47:11.269Z,21.6
2019-01-24T05:48:01.346Z,21.7
2019-01-24T05:48:51.069Z,21.3
2019-01-24T05:49:41.387Z,20.6
2019-01-24T05:50:32.748Z,19.8
2019-01-24T05:51:21.531Z,19.3
2019-01-24T05:52:11.608Z,18.8
2019-01-24T05:53:01.108Z,18.2
2019-01-24T05:53:51.813Z,17.8
2019-01-24T05:54:41.481Z,17.5
2019-01-24T05:55:32.750Z,17.5
2019-01-24T05:56:21.573Z,17.8
2019-01-24T05:57:11.943Z,18.5
2019-01-24T05:58:01.726Z,19.1
2019-01-24T05:58:51.759Z,19.6
2019-01-24T05:59:41.810Z,20
2019-01-24T06:00:31.344Z,20.4
2019-01-24T06:01:22.200Z,20.6
2019-01-24T06:02:12.278Z,20.9
2019-01-24T06:03:02.303Z,21.1
2019-01-24T06:03:52.359Z,21.3
2019-01-24T06:06:39.897Z,21.8
2019-01-24T06:07:31.723Z,21.9
2019-01-24T06:08:20.057Z,22
2019-01-24T06:09:10.638Z,22.1
2019-01-24T06:10:00.387Z,22.2
2019-01-24T06:10:50.485Z,22.1
2019-01-24T06:11:39.969Z,21.6
2019-01-24T06:13:20.394Z,20.7
2019-01-24T06:14:10.722Z,20.4
2019-01-24T06:15:00.527Z,20.1
2019-01-24T06:15:49.990Z,19.9
2019-01-24T06:16:40.593Z,19.8
2019-01-24T06:17:30.627Z,19.6
2019-01-24T06:18:20.707Z,19.5
2019-01-24T06:19:11.070Z,19.4
2019-01-24T06:20:00.860Z,19.3
2019-01-24T06:20:50.917Z,19.2
2019-01-24T06:21:41.529Z,19.1
2019-01-24T06:22:31.532Z,19.1
2019-01-24T06:23:20.681Z,19
2019-01-24T06:24:11.386Z,18.9
2019-01-24T06:25:01.419Z,18.8
2019-01-24T06:25:51.236Z,18.8
2019-01-24T06:26:41.338Z,18.8
2019-01-24T06:27:31.291Z,19
2019-01-24T06:28:20.936Z,19.4
2019-01-24T06:29:11.243Z,19.8
2019-01-24T06:30:01.686Z,20.2
2019-01-24T06:30:50.786Z,20.5
2019-01-24T06:31:41.108Z,20.8
2019-01-24T06:32:32.248Z,20.9
2019-01-24T06:33:22.010Z,21.2
2019-01-24T06:34:12.381Z,21.3
2019-01-24T06:35:01.944Z,21.5
2019-01-24T06:35:57.724Z,21.6
2019-01-24T06:36:42.248Z,21.8
2019-01-24T06:37:32.056Z,21.9
2019-01-24T06:38:22.315Z,22
2019-01-24T06:39:12.376Z,22.1
2019-01-24T06:40:02.473Z,22.2
2019-01-24T06:40:52.223Z,22.3
2019-01-24T06:41:41.487Z,21.8
2019-01-24T06:42:32.350Z,21.3
2019-01-24T06:43:22.127Z,20.9
2019-01-24T06:44:12.180Z,20.6
2019-01-24T06:45:02.582Z,20.3
2019-01-24T06:45:52.570Z,20.1
2019-01-24T06:46:42.660Z,19.9
2019-01-24T06:47:32.974Z,19.8
2019-01-24T06:48:22.494Z,19.6
2019-01-24T06:49:13.387Z,19.5
2019-01-24T06:50:02.957Z,19.4
2019-01-24T06:50:53.472Z,19.3
2019-01-24T06:51:42.977Z,19.2
2019-01-24T06:52:33.294Z,19.1
2019-01-24T06:53:22.517Z,19
2019-01-24T06:54:13.392Z,18.9
2019-01-24T06:55:03.833Z,18.9
2019-01-24T06:55:53.539Z,18.8
2019-01-24T06:57:33.207Z,18.8
2019-01-24T06:58:23.226Z,19.2
2019-01-24T06:59:13.010Z,19.6
2019-01-24T07:00:02.602Z,20
2019-01-24T07:00:53.406Z,20.3
2019-01-24T07:01:43.659Z,20.6
2019-01-24T07:02:32.864Z,20.8
2019-01-24T07:04:13.818Z,21.3
2019-01-24T07:06:39.502Z,21.6
2019-01-24T07:07:29.266Z,21.8
2019-01-24T07:08:19.886Z,21.9
2019-01-24T07:09:10.226Z,22.1
2019-01-24T07:10:00.281Z,22.1
2019-01-24T07:10:49.831Z,22.2
2019-01-24T07:11:39.908Z,22.1
2019-01-24T07:12:30.184Z,21.6
2019-01-24T07:13:19.968Z,21.1
2019-01-24T07:14:10.011Z,20.7
2019-01-24T07:15:00.086Z,20.4
2019-01-24T07:15:50.445Z,20.1
2019-01-24T07:16:40.242Z,19.9
2019-01-24T07:17:30.011Z,19.8
2019-01-24T07:18:21.135Z,19.6
2019-01-24T07:19:09.800Z,19.5
2019-01-24T07:20:00.500Z,19.4
2019-01-24T07:20:50.500Z,19.3
2019-01-24T07:21:40.512Z,19.2
2019-01-24T07:22:31.132Z,19.1
2019-01-24T07:23:20.910Z,19
2019-01-24T07:24:10.207Z,18.9
2019-01-24T07:25:01.117Z,18.8
2019-01-24T07:25:50.538Z,18.8
2019-01-24T07:28:21.015Z,19.1
2019-01-24T07:29:11.070Z,19.6
2019-01-24T07:30:00.849Z,20
2019-01-24T07:30:50.919Z,20.3
2019-01-24T07:31:41.812Z,20.6
2019-01-24T07:32:30.722Z,20.9
2019-01-24T07:33:21.074Z,21.1
2019-01-24T07:34:11.932Z,21.2
2019-01-24T07:35:01.162Z,21.4
2019-01-24T07:35:51.532Z,21.5
2019-01-24T07:36:42.109Z,21.7
2019-01-24T07:37:32.519Z,21.8
2019-01-24T07:38:21.664Z,21.9
2019-01-24T07:39:12.269Z,22
2019-01-24T07:40:01.902Z,22.1
2019-01-24T07:40:51.876Z,22.3
2019-01-24T07:41:41.639Z,21.9
2019-01-24T07:42:30.849Z,21.3
2019-01-24T07:43:23.676Z,20.9
2019-01-24T07:44:12.369Z,20.5
2019-01-24T07:45:02.506Z,20.3
2019-01-24T07:45:52.196Z,20.1
2019-01-24T07:46:41.975Z,19.9
2019-01-24T07:47:32.063Z,19.7
2019-01-24T07:48:22.361Z,19.6
2019-01-24T07:49:12.425Z,19.4
2019-01-24T07:50:02.356Z,19.3
2019-01-24T07:50:53.096Z,19.2
2019-01-24T07:51:42.575Z,19.1
2019-01-24T07:52:33.478Z,19
2019-01-24T07:53:22.440Z,18.9
2019-01-24T07:54:12.480Z,18.9
2019-01-24T07:55:03.394Z,18.8
2019-01-24T07:57:32.725Z,18.9
2019-01-24T07:58:22.881Z,19.4
2019-01-24T07:59:13.115Z,19.9
2019-01-24T08:00:03.536Z,20.1
2019-01-24T08:00:52.392Z,20.5
2019-01-24T08:01:43.537Z,20.7
2019-01-24T08:02:32.788Z,20.9
2019-01-24T08:03:22.584Z,21.2
2019-01-24T08:04:13.488Z,21.4
2019-01-24T08:05:04.068Z,21.6
2019-01-24T08:05:54.118Z,21.4
2019-01-24T08:06:43.370Z,21.5
2019-01-24T08:07:33.747Z,21.6
2019-01-24T08:08:22.932Z,21.8
2019-01-24T08:09:14.674Z,21.9
2019-01-24T08:10:04.014Z,22
2019-01-24T08:10:54.182Z,22.1
2019-01-24T08:11:43.120Z,21.8
2019-01-24T08:12:34.025Z,21.3
2019-01-24T08:13:23.800Z,20.8
2019-01-24T08:14:14.400Z,20.5
2019-01-24T08:15:03.984Z,20.3
2019-01-24T08:15:54.004Z,20
2019-01-24T08:16:44.912Z,19.8
2019-01-24T08:17:34.072Z,19.6
2019-01-24T08:18:24.431Z,19.5
2019-01-24T08:19:14.211Z,19.4
2019-01-24T08:20:04.299Z,19.3
2019-01-24T08:20:54.904Z,19.2
2019-01-24T08:21:45.202Z,19.1
2019-01-24T08:22:35.012Z,19
2019-01-24T08:23:25.632Z,18.9
2019-01-24T08:24:15.374Z,18.8
2019-01-24T08:25:04.976Z,18.8
2019-01-24T08:27:36.776Z,18.9
2019-01-24T08:28:25.716Z,19.4
2019-01-24T08:29:14.154Z,19.8
2019-01-24T08:30:05.254Z,20.2
2019-01-24T08:30:55.550Z,20.5
2019-01-24T08:31:45.328Z,20.8
2019-01-24T08:32:35.401Z,20.9
2019-01-24T08:34:15.513Z,21.3
2019-01-24T08:35:05.854Z,21.5
2019-01-24T08:35:55.359Z,21.6
2019-01-24T08:36:45.396Z,21.8
2019-01-24T08:37:35.736Z,21.9
2019-01-24T08:38:25.275Z,22
2019-01-24T08:39:16.429Z,22.1
2019-01-24T08:40:06.113Z,22.2
2019-01-24T08:40:55.416Z,22.2
2019-01-24T08:41:46.308Z,21.7
2019-01-24T08:42:36.100Z,21.2
2019-01-24T08:43:26.143Z,20.8
2019-01-24T08:44:16.258Z,20.5
2019-01-24T08:45:06.283Z,20.2
2019-01-24T08:45:56.022Z,20
2019-01-24T08:46:46.110Z,19.8
2019-01-24T08:47:36.148Z,19.6
2019-01-24T08:48:26.482Z,19.6
2019-01-24T08:49:16.312Z,19.4
2019-01-24T08:50:06.634Z,19.3
2019-01-24T08:50:56.937Z,19.2
2019-01-24T08:51:47.309Z,19.1
2019-01-24T08:52:37.115Z,19
2019-01-24T08:53:26.619Z,18.9
2019-01-24T08:54:17.487Z,18.8
2019-01-24T08:55:06.241Z,18.8
2019-01-24T08:57:37.412Z,19.1
2019-01-24T08:58:27.499Z,19.6
2019-01-24T08:59:17.492Z,20
2019-01-24T09:00:07.473Z,20.3
2019-01-24T09:00:57.659Z,20.6
2019-01-24T09:01:47.684Z,20.8
2019-01-24T09:02:37.484Z,21.1
2019-01-24T09:03:27.816Z,21.3
2019-01-24T09:04:18.139Z,21.4
2019-01-24T09:05:07.906Z,21.6
2019-01-24T09:05:58.236Z,21.7
2019-01-24T09:06:47.811Z,21.8
2019-01-24T09:07:38.389Z,21.9
2019-01-24T09:08:28.142Z,22.1
2019-01-24T09:09:18.494Z,22.2
2019-01-24T09:10:08.668Z,22.3
2019-01-24T09:10:58.049Z,22.2
2019-01-24T09:11:48.646Z,21.6
2019-01-24T09:13:28.216Z,20.8
2019-01-24T09:14:18.816Z,20.4
2019-01-24T09:15:07.973Z,20.2
2019-01-24T09:15:57.815Z,20
2019-01-24T09:16:48.143Z,19.8
2019-01-24T09:17:39.326Z,19.7
2019-01-24T09:18:28.858Z,19.6
2019-01-24T09:19:19.155Z,19.4
2019-01-24T09:20:08.478Z,19.3
2019-01-24T09:21:00.033Z,19.2
2019-01-24T09:21:49.355Z,19.1
2019-01-24T09:22:39.436Z,19
2019-01-24T09:23:29.760Z,18.9
2019-01-24T09:24:19.539Z,18.9
2019-01-24T09:25:09.875Z,18.8
2019-01-24T09:27:39.095Z,19.1
2019-01-24T09:28:28.930Z,19.6
2019-01-24T09:29:19.840Z,20
2019-01-24T09:30:09.165Z,20.3
2019-01-24T09:30:59.130Z,20.6
2019-01-24T09:31:49.494Z,20.9
2019-01-24T09:32:39.585Z,21.1
2019-01-24T09:33:29.890Z,21.3
2019-01-24T09:34:19.614Z,21.4
2019-01-24T09:35:10.345Z,21.6
2019-01-24T09:35:59.192Z,21.7
2019-01-24T09:36:50.125Z,21.8
2019-01-24T09:37:39.314Z,21.9
2019-01-24T09:38:30.466Z,22.1
2019-01-24T09:39:19.709Z,22.2
2019-01-24T09:40:10.315Z,22.3
2019-01-24T09:40:59.523Z,21.9
2019-01-24T09:41:50.454Z,21.4
2019-01-24T09:42:40.204Z,21
2019-01-24T09:43:30.044Z,20.6
2019-01-24T09:44:20.304Z,20.4
2019-01-24T09:45:10.102Z,20.1
2019-01-24T09:46:00.495Z,19.9
2019-01-24T09:46:50.489Z,19.8
2019-01-24T09:47:41.386Z,19.6
2019-01-24T09:48:30.403Z,19.5
2019-01-24T09:49:20.647Z,19.4
2019-01-24T09:50:10.989Z,19.3
2019-01-24T09:51:01.066Z,19.2
2019-01-24T09:51:50.894Z,19.1
2019-01-24T09:52:41.265Z,19
2019-01-24T09:53:31.491Z,18.9
2019-01-24T09:54:20.741Z,18.8
2019-01-24T09:55:12.261Z,18.8
2019-01-24T09:56:51.461Z,18.9
2019-01-24T09:57:40.688Z,19.4
2019-01-24T09:58:31.855Z,19.8
2019-01-24T09:59:21.913Z,20.2
2019-01-24T10:00:11.970Z,20.5
2019-01-24T10:01:01.821Z,20.8
2019-01-24T10:01:51.522Z,21
2019-01-24T10:02:42.180Z,21.2
2019-01-24T10:03:32.210Z,21.4
2019-01-24T10:04:21.797Z,21.6
2019-01-24T10:05:11.757Z,21.7
2019-01-24T10:07:38.296Z,22
2019-01-24T10:08:29.231Z,22.2
2019-01-24T10:09:19.164Z,22.3
2019-01-24T10:10:09.084Z,22.3
2019-01-24T10:10:59.435Z,21.7
2019-01-24T10:11:48.407Z,21.3
2019-01-24T10:12:39.492Z,20.9
2019-01-24T10:13:29.784Z,20.6
2019-01-24T10:14:19.915Z,20.3
2019-01-24T10:15:09.582Z,20.1
2019-01-24T10:15:59.412Z,19.9
2019-01-24T10:16:50.307Z,19.8
2019-01-24T10:17:41.462Z,19.7
2019-01-24T10:18:30.164Z,19.6
2019-01-24T10:19:19.889Z,19.4
2019-01-24T10:20:10.485Z,19.3
2019-01-24T10:20:59.154Z,19.3
2019-01-24T10:21:50.414Z,19.2
2019-01-24T10:22:40.736Z,19.1
2019-01-24T10:23:29.921Z,19
2019-01-24T10:24:20.291Z,18.9
2019-01-24T10:25:09.897Z,18.8
2019-01-24T10:26:00.408Z,18.8
2019-01-24T10:26:50.783Z,19
2019-01-24T10:27:39.931Z,19.5
2019-01-24T10:28:31.328Z,19.9
2019-01-24T10:29:19.496Z,20.3
2019-01-24T10:30:10.138Z,20.6
2019-01-24T10:31:00.516Z,20.8
2019-01-24T10:31:52.458Z,21
2019-01-24T10:32:40.088Z,21.3
2019-01-24T10:33:30.630Z,21.4
2019-01-24T10:34:20.709Z,21.6
2019-01-24T10:35:10.555Z,21.7
2019-01-24T10:36:00.530Z,21.8
2019-01-24T10:36:50.566Z,22
2019-01-24T10:37:40.700Z,22.1
2019-01-24T10:38:31.531Z,22.2
2019-01-24T10:39:21.136Z,22.3
2019-01-24T10:40:10.716Z,22.3
2019-01-24T10:41:01.460Z,21.9
2019-01-24T10:41:51.568Z,21.3
2019-01-24T10:42:41.862Z,20.9
2019-01-24T10:43:31.325Z,20.6
2019-01-24T10:44:21.915Z,20.4
2019-01-24T10:45:11.433Z,20.1
2019-01-24T10:46:01.200Z,20
2019-01-24T10:46:53.082Z,19.8
2019-01-24T10:47:41.877Z,19.7
2019-01-24T10:48:31.665Z,19.6
2019-01-24T10:49:21.718Z,19.4
2019-01-24T10:50:11.512Z,19.4
2019-01-24T10:51:02.425Z,19.3
2019-01-24T10:51:51.621Z,19.2
2019-01-24T10:52:42.254Z,19.1
2019-01-24T10:53:32.582Z,19.1
2019-01-24T10:54:22.681Z,18.9
2019-01-24T10:55:19.336Z,18.9
2019-01-24T10:56:02.750Z,18.8
2019-01-24T10:56:52.249Z,19
2019-01-24T10:57:43.144Z,19.5
2019-01-24T10:58:32.974Z,19.9
2019-01-24T10:59:23.064Z,20.3
2019-01-24T11:00:12.802Z,20.6
2019-01-24T11:01:01.724Z,20.8
2019-01-24T11:01:52.591Z,21.1
2019-01-24T11:02:43.231Z,21.3
2019-01-24T11:03:33.192Z,21.4
2019-01-24T11:04:22.296Z,21.6
2019-01-24T11:05:12.839Z,21.8
2019-01-24T11:06:03.178Z,21.9
2019-01-24T11:06:57.571Z,22
2019-01-24T11:07:44.009Z,22.1
2019-01-24T11:08:33.254Z,22.2
2019-01-24T11:09:23.656Z,22.3
2019-01-24T11:10:14.698Z,22.4
2019-01-24T11:11:03.545Z,22
2019-01-24T11:11:54.594Z,21.5
2019-01-24T11:12:43.808Z,21.1
2019-01-24T11:13:33.501Z,20.7
2019-01-24T11:14:23.679Z,20.4
2019-01-24T11:15:12.948Z,20.2
2019-01-24T11:16:03.503Z,20.1
2019-01-24T11:16:53.626Z,19.9
2019-01-24T11:17:44.250Z,19.8
2019-01-24T11:18:33.738Z,19.6
2019-01-24T11:19:23.228Z,19.5
2019-01-24T11:20:13.390Z,19.4
2019-01-24T11:21:04.007Z,19.3
2019-01-24T11:21:53.717Z,19.3
2019-01-24T11:22:44.596Z,19.2
2019-01-24T11:23:34.084Z,19.1
2019-01-24T11:24:24.412Z,19
2019-01-24T11:25:14.240Z,18.9
2019-01-24T11:26:03.980Z,18.8
2019-01-24T11:26:54.567Z,18.8
2019-01-24T11:27:44.017Z,19.3
2019-01-24T11:28:34.807Z,19.7
2019-01-24T11:29:24.692Z,20.1
2019-01-24T11:30:14.257Z,20.4
2019-01-24T11:31:05.207Z,20.7
2019-01-24T11:31:55.187Z,20.9
2019-01-24T11:33:35.269Z,21.3
2019-01-24T11:34:25.639Z,21.5
2019-01-24T11:35:15.679Z,21.7
2019-01-24T11:36:05.489Z,21.8
2019-01-24T11:37:01.994Z,21.9
2019-01-24T11:37:45.605Z,22.1
2019-01-24T11:38:35.954Z,22.2
2019-01-24T11:39:25.711Z,22.3
2019-01-24T11:40:15.501Z,22.4
2019-01-24T11:41:05.287Z,22.3
2019-01-24T11:41:55.931Z,21.7
2019-01-24T11:42:45.656Z,21.3
2019-01-24T11:43:34.911Z,20.9
2019-01-24T11:44:25.515Z,20.6
2019-01-24T11:45:15.911Z,20.3
2019-01-24T11:46:04.974Z,20.1
2019-01-24T11:46:55.873Z,19.9
2019-01-24T11:47:46.209Z,19.8